createdAt,value
2018-10-19T00:00:36.274Z,98690.44
2018-10-19T00:03:40.503Z,98684.80
2018-10-19T00:06:44.714Z,98685.07
2018-10-19T00:09:49.418Z,98680.75
2018-10-19T00:12:53.634Z,98682.61
2018-10-19T00:15:57.995Z,98683.70
2018-10-19T00:19:02.225Z,98687.46
2018-10-19T00:22:06.923Z,98678.86
2018-10-19T00:25:11.149Z,98678.86
2018-10-19T00:28:15.437Z,98674.56
2018-10-19T00:31:19.658Z,98674.55
2018-10-19T00:34:23.897Z,98676.95
2018-10-19T00:37:28.174Z,98680.45
2018-10-19T00:40:32.602Z,98675.89
2018-10-19T00:43:36.798Z,98677.50
2018-10-19T00:46:41.066Z,98684.74
2018-10-19T00:49:45.282Z,98689.84
2018-10-19T00:52:49.505Z,98696.81
2018-10-19T00:55:53.739Z,98688.78
2018-10-19T00:58:57.993Z,98681.25
2018-10-19T01:02:02.270Z,98680.42
2018-10-19T01:05:07.069Z,98684.20
2018-10-19T01:08:11.411Z,98679.91
2018-10-19T01:11:16.050Z,98681.24
2018-10-19T01:14:20.206Z,98680.45
2018-10-19T01:17:24.680Z,98678.55
2018-10-19T01:20:28.976Z,98686.08
2018-10-19T01:23:33.581Z,98679.11
2018-10-19T01:26:37.894Z,98676.13
2018-10-19T01:29:42.116Z,98677.98
2018-10-19T01:32:46.762Z,98679.83
2018-10-19T01:35:51.016Z,98683.03
2018-10-19T01:38:55.267Z,98677.38
2018-10-19T01:41:59.381Z,98680.05
2018-10-19T01:45:03.600Z,98673.09
2018-10-19T01:48:07.733Z,98663.72
2018-10-19T01:51:12.007Z,98660.78
2018-10-19T01:54:16.129Z,98667.45
2018-10-19T01:57:23.583Z,98671.73
2018-10-19T02:00:27.805Z,98666.63
2018-10-19T02:03:32.050Z,98671.48
2018-10-19T02:06:36.334Z,98666.63
2018-10-19T02:09:40.691Z,98661.82
2018-10-19T02:12:44.878Z,98663.92
2018-10-19T02:15:49.156Z,98664.44
2018-10-19T02:18:53.631Z,98658.80
2018-10-19T02:21:57.850Z,98670.03
2018-10-19T02:25:02.076Z,98669.17
2018-10-19T02:28:06.360Z,98663.79
2018-10-19T02:31:10.851Z,98669.08
2018-10-19T02:34:15.102Z,98665.02
2018-10-19T02:37:19.301Z,98656.45
2018-10-19T02:40:23.946Z,98658.59
2018-10-19T02:43:28.630Z,98664.78
2018-10-19T02:46:32.826Z,98664.23
2018-10-19T02:49:37.047Z,98666.91
2018-10-19T02:52:41.233Z,98666.32
2018-10-19T02:55:45.470Z,98667.11
2018-10-19T02:58:49.639Z,98668.21
2018-10-19T03:01:53.838Z,98670.60
2018-10-19T03:04:58.182Z,98669.24
2018-10-19T03:08:02.683Z,98675.13
2018-10-19T03:11:07.300Z,98676.47
2018-10-19T03:14:11.455Z,98675.27
2018-10-19T03:17:15.817Z,98676.60
2018-10-19T03:20:20.239Z,98675.03
2018-10-19T03:23:24.597Z,98672.61
2018-10-19T03:26:28.977Z,98670.80
2018-10-19T03:29:33.152Z,98665.05
2018-10-19T03:32:37.326Z,98674.14
2018-10-19T03:35:41.553Z,98674.84
2018-10-19T03:38:45.739Z,98671.06
2018-10-19T03:41:49.931Z,98664.63
2018-10-19T03:44:54.183Z,98668.85
2018-10-19T03:47:59.054Z,98668.91
2018-10-19T03:51:03.288Z,98677.76
2018-10-19T03:54:07.540Z,98679.59
2018-10-19T03:57:11.789Z,98682.80
2018-10-19T04:00:15.941Z,98683.58
2018-10-19T04:03:20.155Z,98688.15
2018-10-19T04:06:24.357Z,98687.63
2018-10-19T04:09:28.795Z,98682.18
2018-10-19T04:12:32.979Z,98685.18
2018-10-19T04:15:37.184Z,98673.33
2018-10-19T04:18:41.340Z,98680.58
2018-10-19T04:21:45.519Z,98682.67
2018-10-19T04:24:49.707Z,98674.34
2018-10-19T04:27:53.958Z,98688.64
2018-10-19T04:30:58.425Z,98688.58
2018-10-19T04:34:02.978Z,98687.27
2018-10-19T04:37:07.652Z,98692.59
2018-10-19T04:40:18.503Z,98690.67
2018-10-19T04:43:23.016Z,98695.34
2018-10-19T04:46:27.589Z,98699.88
2018-10-19T04:49:32.121Z,98703.60
2018-10-19T04:52:36.427Z,98708.95
2018-10-19T04:55:40.597Z,98705.43
2018-10-19T04:58:44.789Z,98699.88
2018-10-19T05:01:48.998Z,98710.06
2018-10-19T05:04:53.402Z,98709.19
2018-10-19T05:07:57.609Z,98714.80
2018-10-19T05:11:01.749Z,98723.69
2018-10-19T05:14:06.405Z,98725.88
2018-10-19T05:17:12.371Z,98724.27
2018-10-19T05:20:18.173Z,98727.80
2018-10-19T05:23:22.259Z,98729.88
2018-10-19T05:26:26.749Z,98728.80
2018-10-19T05:29:30.901Z,98727.45
2018-10-19T05:32:35.111Z,98728.02
2018-10-19T05:35:39.295Z,98732.06
2018-10-19T05:38:43.451Z,98736.20
2018-10-19T05:41:47.586Z,98738.17
2018-10-19T05:44:51.728Z,98739.31
2018-10-19T05:47:55.908Z,98740.66
2018-10-19T05:51:00.075Z,98744.91
2018-10-19T05:54:04.538Z,98746.52
2018-10-19T05:57:08.710Z,98753.25
2018-10-19T06:00:13.597Z,98758.37
2018-10-19T06:03:17.859Z,98757.82
2018-10-19T06:06:22.032Z,98763.11
2018-10-19T06:09:26.255Z,98759.61
2018-10-19T06:12:30.608Z,98766.00
2018-10-19T06:15:34.762Z,98772.08
2018-10-19T06:18:38.906Z,98773.74
2018-10-19T06:21:43.334Z,98776.69
2018-10-19T06:24:47.519Z,98781.02
2018-10-19T06:27:51.677Z,98780.21
2018-10-19T06:30:55.857Z,98783.23
2018-10-19T06:34:00.256Z,98788.39
2018-10-19T06:37:04.518Z,98792.15
2018-10-19T06:40:08.678Z,98795.56
2018-10-19T06:43:13.668Z,98799.58
2018-10-19T06:46:17.817Z,98804.89
2018-10-19T06:49:22.018Z,98804.86
2018-10-19T06:52:26.155Z,98810.59
2018-10-19T06:55:30.304Z,98808.87
2018-10-19T06:58:34.443Z,98812.44
2018-10-19T07:01:38.641Z,98807.36
2018-10-19T07:04:42.844Z,98813.91
2018-10-19T07:07:47.017Z,98812.92
2018-10-19T07:10:51.117Z,98813.98
2018-10-19T07:13:55.272Z,98818.55
2018-10-19T07:16:59.444Z,98820.19
2018-10-19T07:20:03.703Z,98826.71
2018-10-19T07:23:07.841Z,98825.69
2018-10-19T07:26:12.011Z,98823.30
2018-10-19T07:29:16.220Z,98828.95
2018-10-19T07:32:20.290Z,98834.58
2018-10-19T07:35:24.462Z,98835.12
2018-10-19T07:38:28.624Z,98837.25
2018-10-19T07:41:32.772Z,98838.11
2018-10-19T07:44:36.906Z,98834.98
2018-10-19T07:47:41.135Z,98833.65
2018-10-19T07:50:45.243Z,98835.83
2018-10-19T07:53:49.414Z,98835.04
2018-10-19T07:56:53.578Z,98833.45
2018-10-19T07:59:57.732Z,98836.70
2018-10-19T08:03:01.887Z,98839.94
2018-10-19T08:06:06.018Z,98838.84
2018-10-19T08:09:11.254Z,98837.51
2018-10-19T08:12:15.459Z,98840.75
2018-10-19T08:15:19.595Z,98831.59
2018-10-19T08:18:23.884Z,98833.46
2018-10-19T08:21:28.367Z,98838.82
2018-10-19T08:24:36.021Z,98836.39
2018-10-19T08:27:41.589Z,98826.67
2018-10-19T08:30:45.738Z,98838.48
2018-10-19T08:33:49.886Z,98832.00
2018-10-19T08:36:54.072Z,98836.31
2018-10-19T08:39:58.215Z,98832.31
2018-10-19T08:43:02.470Z,98833.09
2018-10-19T08:46:12.054Z,98827.42
2018-10-19T08:49:16.208Z,98830.55
2018-10-19T08:52:20.336Z,98834.22
2018-10-19T08:55:24.619Z,98837.44
2018-10-19T08:58:28.767Z,98836.86
2018-10-19T09:01:32.931Z,98838.84
2018-10-19T09:04:37.163Z,98842.30
2018-10-19T09:07:41.314Z,98843.16
2018-10-19T09:10:45.508Z,98837.14
2018-10-19T09:13:49.593Z,98842.57
2018-10-19T09:16:53.855Z,98843.73
2018-10-19T09:19:57.963Z,98835.27
2018-10-19T09:23:02.182Z,98831.21
2018-10-19T09:26:06.299Z,98829.98
2018-10-19T09:29:10.481Z,98832.14
2018-10-19T09:32:14.649Z,98836.14
2018-10-19T09:35:18.944Z,98835.94
2018-10-19T09:38:22.932Z,98821.45
2018-10-19T09:41:27.246Z,98824.80
2018-10-19T09:44:31.328Z,98825.39
2018-10-19T09:47:35.517Z,98819.79
2018-10-19T09:50:39.622Z,98816.05
2018-10-19T09:53:43.761Z,98820.50
2018-10-19T09:56:47.901Z,98818.95
2018-10-19T09:59:52.074Z,98820.43
2018-10-19T10:02:56.227Z,98820.22
2018-10-19T10:06:00.363Z,98820.00
2018-10-19T10:09:07.727Z,98814.86
2018-10-19T10:12:11.895Z,98817.83
2018-10-19T10:15:16.182Z,98815.76
2018-10-19T10:18:20.187Z,98819.45
2018-10-19T10:21:24.327Z,98821.88
2018-10-19T10:24:28.479Z,98817.50
2018-10-19T10:27:32.709Z,98819.34
2018-10-19T10:30:36.847Z,98822.06
2018-10-19T10:33:41.103Z,98811.29
2018-10-19T10:36:45.234Z,98817.41
2018-10-19T10:39:49.399Z,98809.36
2018-10-19T10:42:53.599Z,98804.94
2018-10-19T10:45:57.761Z,98802.51
2018-10-19T10:49:01.948Z,98795.09
2018-10-19T10:52:06.721Z,98803.41
2018-10-19T10:55:10.929Z,98789.52
2018-10-19T10:58:15.088Z,98790.52
2018-10-19T11:01:19.215Z,98798.59
2018-10-19T11:04:23.344Z,98791.34
2018-10-19T11:07:27.677Z,98785.71
2018-10-19T11:10:31.663Z,98786.03
2018-10-19T11:13:35.820Z,98785.06
2018-10-19T11:16:39.956Z,98777.97
2018-10-19T11:19:44.100Z,98776.20
2018-10-19T11:22:48.255Z,98775.10
2018-10-19T11:25:52.407Z,98769.84
2018-10-19T11:28:56.554Z,98765.87
2018-10-19T11:32:00.703Z,98769.23
2018-10-19T11:35:05.177Z,98768.17
2018-10-19T11:38:09.360Z,98763.73
2018-10-19T11:41:13.534Z,98762.56
2018-10-19T11:44:17.687Z,98754.47
2018-10-19T11:47:21.827Z,98761.55
2018-10-19T11:50:25.974Z,98751.05
2018-10-19T11:53:30.214Z,98750.90
2018-10-19T11:56:34.363Z,98748.33
2018-10-19T11:59:38.511Z,98742.80
2018-10-19T12:02:42.668Z,98746.73
2018-10-19T12:05:46.803Z,98742.56
2018-10-19T12:08:50.965Z,98737.34
2018-10-19T12:11:55.119Z,98729.56
2018-10-19T12:14:59.327Z,98732.98
2018-10-19T12:18:03.463Z,98727.48
2018-10-19T12:21:07.959Z,98727.80
2018-10-19T12:24:12.140Z,98715.39
2018-10-19T12:27:16.332Z,98719.27
2018-10-19T12:30:20.427Z,98710.70
2018-10-19T12:33:24.572Z,98714.53
2018-10-19T12:36:28.867Z,98718.63
2018-10-19T12:39:33.014Z,98715.87
2018-10-19T12:42:37.581Z,98719.87
2018-10-19T12:46:57.986Z,98716.75
2018-10-19T12:50:02.161Z,98712.27
2018-10-19T12:53:06.387Z,98706.61
2018-10-19T12:56:10.650Z,98712.91
2018-10-19T12:59:14.894Z,98711.66
2018-10-19T13:02:19.051Z,98705.98
2018-10-19T13:05:23.206Z,98700.82
2018-10-19T13:08:27.447Z,98701.92
2018-10-19T13:11:31.582Z,98704.56
2018-10-19T13:14:35.785Z,98694.20
2018-10-19T13:17:39.942Z,98696.16
2018-10-19T13:20:44.112Z,98695.22
2018-10-19T13:23:48.333Z,98697.34
2018-10-19T13:26:52.522Z,98696.88
2018-10-19T13:29:56.708Z,98695.83
2018-10-19T13:33:01.351Z,98702.48
2018-10-19T13:36:05.852Z,98702.16
2018-10-19T13:39:12.012Z,98692.77
2018-10-19T13:42:16.098Z,98692.63
2018-10-19T13:45:20.279Z,98702.19
2018-10-19T13:48:24.699Z,98696.67
2018-10-19T13:51:28.862Z,98692.16
2018-10-19T13:54:33.018Z,98689.50
2018-10-19T13:57:37.171Z,98690.78
2018-10-19T14:00:41.415Z,98686.82
2018-10-19T14:03:45.543Z,98679.53
2018-10-19T14:06:49.705Z,98679.98
2018-10-19T14:09:53.953Z,98686.64
2018-10-19T14:12:58.142Z,98680.12
2018-10-19T14:16:02.293Z,98682.22
2018-10-19T14:19:06.439Z,98677.66
2018-10-19T14:22:10.634Z,98678.30
2018-10-19T14:25:15.021Z,98677.77
2018-10-19T14:28:19.267Z,98680.27
2018-10-19T14:31:23.508Z,98682.53
2018-10-19T14:34:27.658Z,98677.25
2018-10-19T14:37:32.007Z,98676.02
2018-10-19T14:40:36.164Z,98677.33
2018-10-19T14:43:40.302Z,98681.69
2018-10-19T14:46:44.722Z,98684.55
2018-10-19T14:49:49.001Z,98682.59
2018-10-19T14:52:53.170Z,98688.99
2018-10-19T14:55:57.342Z,98688.03
2018-10-19T14:59:01.567Z,98691.81
2018-10-19T15:02:05.792Z,98695.34
2018-10-19T15:05:11.914Z,98689.97
2018-10-19T15:08:15.997Z,98690.67
2018-10-19T15:11:20.337Z,98687.86
2018-10-19T15:14:24.332Z,98692.20
2018-10-19T15:17:28.550Z,98693.95
2018-10-19T15:20:32.707Z,98688.36
2018-10-19T15:23:36.858Z,98692.98
2018-10-19T15:26:41.324Z,98681.52
2018-10-19T15:29:45.622Z,98689.58
2018-10-19T15:32:49.651Z,98688.83
2018-10-19T15:35:53.819Z,98689.59
2018-10-19T15:38:58.092Z,98697.94
2018-10-19T15:42:02.255Z,98696.84
2018-10-19T15:45:09.956Z,98688.87
2018-10-19T15:48:14.113Z,98692.03
2018-10-19T15:51:18.247Z,98693.78
2018-10-19T15:54:22.527Z,98697.67
2018-10-19T15:57:26.739Z,98703.25
2018-10-19T16:00:30.954Z,98696.09
2018-10-19T16:03:35.040Z,98694.17
2018-10-19T16:06:39.287Z,98701.69
2018-10-19T16:09:43.494Z,98709.19
2018-10-19T16:12:47.638Z,98711.45
2018-10-19T16:15:51.811Z,98719.38
2018-10-19T16:18:56.068Z,98716.00
2018-10-19T16:22:00.224Z,98721.70
2018-10-19T16:25:05.018Z,98721.09
2018-10-19T16:28:09.175Z,98714.47
2018-10-19T16:31:13.339Z,98728.06
2018-10-19T16:34:17.573Z,98729.71
2018-10-19T16:37:21.728Z,98737.50
2018-10-19T16:40:25.897Z,98731.16
2018-10-19T16:43:30.055Z,98739.39
2018-10-19T16:46:34.214Z,98739.83
2018-10-19T16:49:38.365Z,98740.27
2018-10-19T16:52:42.743Z,98743.69
2018-10-19T16:55:46.750Z,98745.27
2018-10-19T16:58:50.920Z,98749.93
2018-10-19T17:01:55.094Z,98753.56
2018-10-19T17:04:59.262Z,98751.58
2018-10-19T17:08:03.468Z,98759.75
2018-10-19T17:11:07.652Z,98763.80
2018-10-19T17:14:12.104Z,98761.92
2018-10-19T17:17:16.267Z,98777.10
2018-10-19T17:20:20.451Z,98774.53
2018-10-19T17:23:24.749Z,98779.44
2018-10-19T17:26:28.971Z,98782.72
2018-10-19T17:29:33.315Z,98779.51
2018-10-19T17:32:38.400Z,98786.62
2018-10-19T17:35:42.620Z,98787.16
2018-10-19T17:38:46.771Z,98788.22
2018-10-19T17:41:50.997Z,98789.69
2018-10-19T17:44:55.233Z,98797.50
2018-10-19T17:47:59.445Z,98795.59
2018-10-19T17:51:03.960Z,98801.28
2018-10-19T17:54:08.166Z,98793.48
2018-10-19T17:57:12.235Z,98806.22
2018-10-19T18:00:16.374Z,98801.41
2018-10-19T18:03:20.531Z,98809.49
2018-10-19T18:06:24.729Z,98805.74
2018-10-19T18:09:28.943Z,98809.84
2018-10-19T18:12:33.049Z,98809.30
2018-10-19T18:15:37.232Z,98811.78
2018-10-19T18:18:41.310Z,98809.67
2018-10-19T18:21:45.479Z,98812.70
2018-10-19T18:24:49.650Z,98813.02
2018-10-19T18:27:53.830Z,98810.33
2018-10-19T18:30:57.993Z,98816.30
2018-10-19T18:34:02.126Z,98812.53
2018-10-19T18:37:07.816Z,98817.39
2018-10-19T18:40:12.811Z,98819.02
2018-10-19T18:43:16.975Z,98829.55
2018-10-19T18:46:21.215Z,98834.69
2018-10-19T18:49:25.436Z,98832.84
2018-10-19T18:52:29.666Z,98837.69
2018-10-19T18:55:33.876Z,98842.84
2018-10-19T18:58:38.103Z,98840.40
2018-10-19T19:01:42.252Z,98839.86
2018-10-19T19:04:46.460Z,98842.58
2018-10-19T19:07:50.637Z,98855.25
2018-10-19T19:10:54.806Z,98859.28
2018-10-19T19:13:59.043Z,98857.94
2018-10-19T19:17:03.177Z,98863.88
2018-10-19T19:20:13.712Z,98870.85
2018-10-19T19:23:17.856Z,98871.39
2018-10-19T19:26:23.410Z,98874.89
2018-10-19T19:29:27.566Z,98878.41
2018-10-19T19:32:31.803Z,98888.09
2018-10-19T19:35:36.745Z,98889.72
2018-10-19T19:38:40.962Z,98890.52
2018-10-19T19:41:50.531Z,98897.51
2018-10-19T19:44:55.620Z,98906.13
2018-10-19T19:48:05.164Z,98901.82
2018-10-19T19:51:09.418Z,98910.97
2018-10-19T19:54:13.605Z,98915.27
2018-10-19T19:57:17.730Z,98914.42
2018-10-19T20:00:21.895Z,98921.16
2018-10-19T20:03:26.036Z,98919.27
2018-10-19T20:06:30.180Z,98924.37
2018-10-19T20:09:34.330Z,98930.02
2018-10-19T20:12:38.923Z,98935.66
2018-10-19T20:15:43.139Z,98935.13
2018-10-19T20:18:47.295Z,98935.09
2018-10-19T20:21:51.572Z,98940.74
2018-10-19T20:24:55.774Z,98941.52
2018-10-19T20:27:59.992Z,98945.83
2018-10-19T20:31:04.146Z,98940.95
2018-10-19T20:34:08.320Z,98943.39
2018-10-19T20:37:12.533Z,98945.00
2018-10-19T20:40:16.797Z,98950.63
2018-10-19T20:43:20.909Z,98951.97
2018-10-19T20:46:25.124Z,98953.06
2018-10-19T20:49:29.295Z,98949.03
2018-10-19T20:52:33.454Z,98954.41
2018-10-19T20:55:37.614Z,98958.14
2018-10-19T20:58:41.764Z,98960.28
2018-10-19T21:01:46.023Z,98962.13
2018-10-19T21:04:50.256Z,98960.50
2018-10-19T21:07:54.390Z,98960.75
2018-10-19T21:10:58.564Z,98956.36
2018-10-19T21:14:02.710Z,98961.27
2018-10-19T21:17:06.950Z,98961.67
2018-10-19T21:20:12.172Z,98960.98
2018-10-19T21:23:16.270Z,98964.95
2018-10-19T21:26:20.569Z,98964.36
2018-10-19T21:29:24.784Z,98968.36
2018-10-19T21:32:28.936Z,98966.48
2018-10-19T21:35:33.090Z,98966.50
2018-10-19T21:38:37.228Z,98970.80
2018-10-19T21:41:41.385Z,98967.83
2018-10-19T21:44:45.507Z,98979.62
2018-10-19T21:47:49.663Z,98979.89
2018-10-19T21:50:54.957Z,98974.23
2018-10-19T21:53:59.693Z,98980.11
2018-10-19T21:57:03.860Z,98975.23
2018-10-19T22:00:09.600Z,98974.13
2018-10-19T22:03:13.776Z,98975.95
2018-10-19T22:06:18.250Z,98981.61
2018-10-19T22:09:22.403Z,98982.09
2018-10-19T22:12:26.590Z,98978.58
2018-10-19T22:15:30.806Z,98978.84
2018-10-19T22:18:34.990Z,98982.08
2018-10-19T22:21:39.744Z,98990.95
2018-10-19T22:24:43.927Z,98985.06
2018-10-19T22:27:48.081Z,98981.23
2018-10-19T22:30:52.230Z,98976.92
2018-10-19T22:33:56.416Z,98980.08
2018-10-19T22:37:00.652Z,98979.48
2018-10-19T22:40:05.355Z,98985.91
2018-10-19T22:43:09.542Z,98985.02
2018-10-19T22:46:13.694Z,98992.41
2018-10-19T22:49:17.955Z,98988.95
2018-10-19T22:52:22.114Z,98994.91
2018-10-19T22:55:26.271Z,98997.73
2018-10-19T22:58:30.426Z,98999.08
2018-10-19T23:01:34.599Z,98998.16
2018-10-19T23:04:38.849Z,99005.94
2018-10-19T23:07:43.046Z,99011.86
2018-10-19T23:10:47.339Z,99007.50
2018-10-19T23:13:51.618Z,99013.61
2018-10-19T23:16:55.805Z,99012.79
2018-10-19T23:19:59.938Z,99006.78
2018-10-19T23:23:04.151Z,99005.19
2018-10-19T23:26:08.286Z,99007.83
2018-10-19T23:29:12.577Z,99010.03
2018-10-19T23:32:16.663Z,99002.76
2018-10-19T23:35:20.877Z,99001.86
2018-10-19T23:38:25.093Z,99004.75
2018-10-19T23:41:29.568Z,99005.11
2018-10-19T23:44:33.793Z,99002.42
2018-10-19T23:47:38.054Z,99003.11
2018-10-19T23:50:42.242Z,99004.80
2018-10-19T23:53:46.391Z,99007.56
2018-10-19T23:56:50.629Z,99003.63
2018-10-19T23:59:54.778Z,99006.38
